Hauptseite
METAR-TAF:

METAR-TAF

Flughäfen :

Westminster, Maryland, Vereinigte Staaten

Breite: 39-36-30N, Länge: 077-00-28W, Höhe: 240 m

Beobachtung

Neuester Wetterbericht von vor 15 Minuten, um 06:55 UTC
Wind 3 kt aus Südwest
Temperatur 1°C
Luftfeuchtigkeit 100%
Luftdruck 1013 hPa
Sichtweite: 0.4 km
Geschlossene Wolkendecke in der Höhe von 100 ft
Nebel

METAR: KDMW 270655Z AUTO 23003KT 1/4SM FG OVC001 01/01 A2990 RMK AO2

Zeit: 02:10 (07:10 UTC)


TAF: fehlend

Wetterbeobachtungen und Prognosen von mehr als 4000 Flughäfen (METAR und TAF Bericht).

Die verfügbaren Stationen werden durch gelbe und rote Markierungen auf der Karte dargestellt.

Führen Sie die Maus auf sie, um den Namen der Station zu sehen.

Darauf klicken, um die Beobachtung von Wetterbeobachtungen und Prognosen zu sehen.

Um die Karte zu ändern : klicken Sie auf den grünen Tasten mit einem schwarzen Kreuz Zum Vergrößern, auf den grünen Button mit einem Gedankenstrich zu verkleinern, oder auf die grünen Pfeile für benachbarte Karten.


METAR-TAF: